sensor_id;sensor_type;location;lat;lon;timestamp;temperature;humidity
37268;DHT22;23154;52.542;13.362;2022-11-15T00:01:27;5.50;99.90
37268;DHT22;23154;52.542;13.362;2022-11-15T00:03:52;5.40;99.90
37268;DHT22;23154;52.542;13.362;2022-11-15T00:06:18;5.40;99.90
37268;DHT22;23154;52.542;13.362;2022-11-15T00:08:43;5.40;99.90
37268;DHT22;23154;52.542;13.362;2022-11-15T00:11:09;5.30;99.90
37268;DHT22;23154;52.542;13.362;2022-11-15T00:13:36;5.30;99.90
37268;DHT22;23154;52.542;13.362;2022-11-15T00:16:02;5.30;99.90
37268;DHT22;23154;52.542;13.362;2022-11-15T00:18:28;5.20;99.90
37268;DHT22;23154;52.542;13.362;2022-11-15T00:20:54;5.30;99.90
37268;DHT22;23154;52.542;13.362;2022-11-15T00:23:19;5.20;99.90
37268;DHT22;23154;52.542;13.362;2022-11-15T00:25:45;5.20;99.90
37268;DHT22;23154;52.542;13.362;2022-11-15T00:28:11;5.30;99.90
37268;DHT22;23154;52.542;13.362;2022-11-15T00:30:37;5.30;99.90
37268;DHT22;23154;52.542;13.362;2022-11-15T00:33:05;5.40;99.90
37268;DHT22;23154;52.542;13.362;2022-11-15T00:35:31;5.30;99.90
37268;DHT22;23154;52.542;13.362;2022-11-15T00:37:57;5.30;99.90
37268;DHT22;23154;52.542;13.362;2022-11-15T00:40:23;5.20;99.90
37268;DHT22;23154;52.542;13.362;2022-11-15T00:42:49;5.20;99.90
37268;DHT22;23154;52.542;13.362;2022-11-15T00:45:14;5.10;99.90
37268;DHT22;23154;52.542;13.362;2022-11-15T00:47:40;5.20;99.90
37268;DHT22;23154;52.542;13.362;2022-11-15T00:50:05;5.10;99.90
37268;DHT22;23154;52.542;13.362;2022-11-15T00:52:31;5.10;99.90
37268;DHT22;23154;52.542;13.362;2022-11-15T00:54:56;5.10;99.90
37268;DHT22;23154;52.542;13.362;2022-11-15T00:57:22;5.20;99.90
37268;DHT22;23154;52.542;13.362;2022-11-15T00:59:47;5.20;99.90
37268;DHT22;23154;52.542;13.362;2022-11-15T01:02:13;5.30;99.90
37268;DHT22;23154;52.542;13.362;2022-11-15T01:04:38;5.10;99.90
37268;DHT22;23154;52.542;13.362;2022-11-15T01:07:04;5.10;99.90
37268;DHT22;23154;52.542;13.362;2022-11-15T01:09:30;5.10;99.90
37268;DHT22;23154;52.542;13.362;2022-11-15T01:11:55;5.20;99.90
37268;DHT22;23154;52.542;13.362;2022-11-15T01:14:21;5.10;99.90
37268;DHT22;23154;52.542;13.362;2022-11-15T01:16:46;5.20;99.90
37268;DHT22;23154;52.542;13.362;2022-11-15T01:19:12;5.30;99.90
37268;DHT22;23154;52.542;13.362;2022-11-15T01:21:37;5.30;99.90
37268;DHT22;23154;52.542;13.362;2022-11-15T01:24:03;5.40;99.90
37268;DHT22;23154;52.542;13.362;2022-11-15T01:26:28;5.30;99.90
37268;DHT22;23154;52.542;13.362;2022-11-15T01:28:54;5.10;99.90
37268;DHT22;23154;52.542;13.362;2022-11-15T01:31:20;5.20;99.90
37268;DHT22;23154;52.542;13.362;2022-11-15T01:33:46;5.10;99.90
37268;DHT22;23154;52.542;13.362;2022-11-15T01:36:16;5.10;99.90
37268;DHT22;23154;52.542;13.362;2022-11-15T01:38:42;5.10;99.90
37268;DHT22;23154;52.542;13.362;2022-11-15T01:41:17;5.00;99.90
37268;DHT22;23154;52.542;13.362;2022-11-15T01:43:42;5.00;99.90
37268;DHT22;23154;52.542;13.362;2022-11-15T01:48:52;5.10;99.90
37268;DHT22;23154;52.542;13.362;2022-11-15T01:51:20;5.20;99.90
37268;DHT22;23154;52.542;13.362;2022-11-15T01:53:47;5.10;99.90
37268;DHT22;23154;52.542;13.362;2022-11-15T01:56:18;5.20;99.90
37268;DHT22;23154;52.542;13.362;2022-11-15T01:58:45;5.20;99.90
37268;DHT22;23154;52.542;13.362;2022-11-15T02:01:12;5.10;99.90
37268;DHT22;23154;52.542;13.362;2022-11-15T02:03:49;5.20;99.90
37268;DHT22;23154;52.542;13.362;2022-11-15T02:06:16;5.30;99.90
37268;DHT22;23154;52.542;13.362;2022-11-15T02:08:42;5.20;99.90
37268;DHT22;23154;52.542;13.362;2022-11-15T02:11:08;5.20;99.90
37268;DHT22;23154;52.542;13.362;2022-11-15T02:13:34;5.30;99.90
37268;DHT22;23154;52.542;13.362;2022-11-15T02:18:28;5.10;99.90
37268;DHT22;23154;52.542;13.362;2022-11-15T02:28:46;5.00;99.90
37268;DHT22;23154;52.542;13.362;2022-11-15T02:34:04;5.10;99.90
37268;DHT22;23154;52.542;13.362;2022-11-15T02:36:35;5.10;99.90
37268;DHT22;23154;52.542;13.362;2022-11-15T02:39:04;5.00;99.90
37268;DHT22;23154;52.542;13.362;2022-11-15T02:44:08;5.00;99.90
37268;DHT22;23154;52.542;13.362;2022-11-15T02:49:28;5.00;99.90
37268;DHT22;23154;52.542;13.362;2022-11-15T02:51:54;4.90;99.90
37268;DHT22;23154;52.542;13.362;2022-11-15T02:54:21;5.00;99.90
37268;DHT22;23154;52.542;13.362;2022-11-15T02:56:47;5.10;99.90
37268;DHT22;23154;52.542;13.362;2022-11-15T03:04:16;5.20;99.90
37268;DHT22;23154;52.542;13.362;2022-11-15T03:06:57;5.20;99.90
37268;DHT22;23154;52.542;13.362;2022-11-15T03:09:39;5.10;99.90
37268;DHT22;23154;52.542;13.362;2022-11-15T03:12:11;5.00;99.90
37268;DHT22;23154;52.542;13.362;2022-11-15T03:14:58;4.90;99.90
37268;DHT22;23154;52.542;13.362;2022-11-15T03:17:30;5.00;99.90
37268;DHT22;23154;52.542;13.362;2022-11-15T03:19:59;5.00;99.90
37268;DHT22;23154;52.542;13.362;2022-11-15T03:22:26;5.10;99.90
37268;DHT22;23154;52.542;13.362;2022-11-15T03:24:53;5.10;99.90
37268;DHT22;23154;52.542;13.362;2022-11-15T03:27:21;5.10;99.90
37268;DHT22;23154;52.542;13.362;2022-11-15T03:29:48;5.20;99.90
37268;DHT22;23154;52.542;13.362;2022-11-15T03:32:19;5.20;99.90
37268;DHT22;23154;52.542;13.362;2022-11-15T03:35:02;5.10;99.90
37268;DHT22;23154;52.542;13.362;2022-11-15T03:37:32;5.20;99.90
37268;DHT22;23154;52.542;13.362;2022-11-15T03:39:59;5.10;99.90
37268;DHT22;23154;52.542;13.362;2022-11-15T03:44:52;5.10;99.90
37268;DHT22;23154;52.542;13.362;2022-11-15T03:47:29;5.10;99.90
37268;DHT22;23154;52.542;13.362;2022-11-15T03:49:59;5.20;99.90
37268;DHT22;23154;52.542;13.362;2022-11-15T03:52:25;5.20;99.90
37268;DHT22;23154;52.542;13.362;2022-11-15T03:54:52;5.10;99.90
37268;DHT22;23154;52.542;13.362;2022-11-15T03:57:18;5.10;99.90
37268;DHT22;23154;52.542;13.362;2022-11-15T03:59:43;5.10;99.90
37268;DHT22;23154;52.542;13.362;2022-11-15T04:02:09;5.00;99.90
37268;DHT22;23154;52.542;13.362;2022-11-15T04:04:34;5.30;99.90
37268;DHT22;23154;52.542;13.362;2022-11-15T04:07:00;5.20;99.90
37268;DHT22;23154;52.542;13.362;2022-11-15T04:09:25;5.20;99.90
37268;DHT22;23154;52.542;13.362;2022-11-15T04:11:50;5.10;99.90
37268;DHT22;23154;52.542;13.362;2022-11-15T04:14:16;5.10;99.90
37268;DHT22;23154;52.542;13.362;2022-11-15T04:16:41;5.10;99.90
37268;DHT22;23154;52.542;13.362;2022-11-15T04:19:07;5.20;99.90
37268;DHT22;23154;52.542;13.362;2022-11-15T04:21:51;5.10;99.90
37268;DHT22;23154;52.542;13.362;2022-11-15T04:24:35;5.20;99.90
37268;DHT22;23154;52.542;13.362;2022-11-15T04:27:01;5.10;99.90
37268;DHT22;23154;52.542;13.362;2022-11-15T04:29:26;5.10;99.90
37268;DHT22;23154;52.542;13.362;2022-11-15T04:32:04;5.00;99.90
37268;DHT22;23154;52.542;13.362;2022-11-15T04:34:30;5.00;99.90
37268;DHT22;23154;52.542;13.362;2022-11-15T04:36:56;5.10;99.90
37268;DHT22;23154;52.542;13.362;2022-11-15T04:39:37;5.00;99.90
37268;DHT22;23154;52.542;13.362;2022-11-15T04:42:02;5.00;99.90
37268;DHT22;23154;52.542;13.362;2022-11-15T04:44:28;4.90;99.90
37268;DHT22;23154;52.542;13.362;2022-11-15T04:46:53;4.90;99.90
37268;DHT22;23154;52.542;13.362;2022-11-15T04:49:19;4.90;99.90
37268;DHT22;23154;52.542;13.362;2022-11-15T04:51:44;5.00;99.90
37268;DHT22;23154;52.542;13.362;2022-11-15T04:54:10;5.00;99.90
37268;DHT22;23154;52.542;13.362;2022-11-15T04:56:35;5.00;99.90
37268;DHT22;23154;52.542;13.362;2022-11-15T04:59:01;5.10;99.90
37268;DHT22;23154;52.542;13.362;2022-11-15T05:01:26;5.10;99.90
37268;DHT22;23154;52.542;13.362;2022-11-15T05:03:52;5.10;99.90
37268;DHT22;23154;52.542;13.362;2022-11-15T05:06:36;5.10;99.90
37268;DHT22;23154;52.542;13.362;2022-11-15T05:09:02;5.10;99.90
37268;DHT22;23154;52.542;13.362;2022-11-15T05:11:27;5.20;99.90
37268;DHT22;23154;52.542;13.362;2022-11-15T05:13:53;5.10;99.90
37268;DHT22;23154;52.542;13.362;2022-11-15T05:16:18;5.20;99.90
37268;DHT22;23154;52.542;13.362;2022-11-15T05:18:44;5.10;99.90
37268;DHT22;23154;52.542;13.362;2022-11-15T05:21:11;5.10;99.90
37268;DHT22;23154;52.542;13.362;2022-11-15T05:23:36;5.00;99.90
37268;DHT22;23154;52.542;13.362;2022-11-15T05:26:02;5.00;99.90
37268;DHT22;23154;52.542;13.362;2022-11-15T05:28:28;5.00;99.90
37268;DHT22;23154;52.542;13.362;2022-11-15T05:30:59;4.90;99.90
37268;DHT22;23154;52.542;13.362;2022-11-15T05:33:25;4.90;99.90
37268;DHT22;23154;52.542;13.362;2022-11-15T05:35:51;4.90;99.90
37268;DHT22;23154;52.542;13.362;2022-11-15T05:38:19;5.00;99.90
37268;DHT22;23154;52.542;13.362;2022-11-15T05:40:45;4.90;99.90
37268;DHT22;23154;52.542;13.362;2022-11-15T05:43:11;4.90;99.90
37268;DHT22;23154;52.542;13.362;2022-11-15T05:45:36;4.90;99.90
37268;DHT22;23154;52.542;13.362;2022-11-15T05:48:04;4.90;99.90
37268;DHT22;23154;52.542;13.362;2022-11-15T05:50:30;4.90;99.90
37268;DHT22;23154;52.542;13.362;2022-11-15T05:52:55;4.90;99.90
37268;DHT22;23154;52.542;13.362;2022-11-15T05:55:21;4.80;99.90
37268;DHT22;23154;52.542;13.362;2022-11-15T05:57:47;4.80;99.90
37268;DHT22;23154;52.542;13.362;2022-11-15T06:00:12;4.80;99.90
37268;DHT22;23154;52.542;13.362;2022-11-15T06:02:38;4.80;99.90
37268;DHT22;23154;52.542;13.362;2022-11-15T06:05:03;4.70;99.90
37268;DHT22;23154;52.542;13.362;2022-11-15T06:07:29;4.80;99.90
37268;DHT22;23154;52.542;13.362;2022-11-15T06:09:55;5.00;99.90
37268;DHT22;23154;52.542;13.362;2022-11-15T06:12:20;5.00;99.90
37268;DHT22;23154;52.542;13.362;2022-11-15T06:14:46;5.00;99.90
37268;DHT22;23154;52.542;13.362;2022-11-15T06:17:11;5.10;99.90
37268;DHT22;23154;52.542;13.362;2022-11-15T06:19:37;5.10;99.90
37268;DHT22;23154;52.542;13.362;2022-11-15T06:22:02;5.10;99.90
37268;DHT22;23154;52.542;13.362;2022-11-15T06:24:28;5.00;99.90
37268;DHT22;23154;52.542;13.362;2022-11-15T06:26:53;5.00;99.90
37268;DHT22;23154;52.542;13.362;2022-11-15T06:29:19;5.00;99.90
37268;DHT22;23154;52.542;13.362;2022-11-15T06:31:45;5.00;99.90
37268;DHT22;23154;52.542;13.362;2022-11-15T06:34:10;5.00;99.90
37268;DHT22;23154;52.542;13.362;2022-11-15T06:36:35;5.10;99.90
37268;DHT22;23154;52.542;13.362;2022-11-15T06:39:02;5.10;99.90
37268;DHT22;23154;52.542;13.362;2022-11-15T06:41:28;5.10;99.90
37268;DHT22;23154;52.542;13.362;2022-11-15T06:43:53;5.10;99.90
37268;DHT22;23154;52.542;13.362;2022-11-15T06:46:19;5.40;99.90
37268;DHT22;23154;52.542;13.362;2022-11-15T06:48:44;5.40;99.90
37268;DHT22;23154;52.542;13.362;2022-11-15T06:51:10;5.40;99.90
37268;DHT22;23154;52.542;13.362;2022-11-15T06:53:35;5.40;99.90
37268;DHT22;23154;52.542;13.362;2022-11-15T06:56:02;5.30;99.90
37268;DHT22;23154;52.542;13.362;2022-11-15T06:58:27;5.30;99.90
37268;DHT22;23154;52.542;13.362;2022-11-15T07:00:53;5.30;99.90
37268;DHT22;23154;52.542;13.362;2022-11-15T07:03:19;5.20;99.90
37268;DHT22;23154;52.542;13.362;2022-11-15T07:05:54;5.20;99.90
37268;DHT22;23154;52.542;13.362;2022-11-15T07:08:20;5.20;99.90
37268;DHT22;23154;52.542;13.362;2022-11-15T07:10:46;5.30;99.90
37268;DHT22;23154;52.542;13.362;2022-11-15T07:13:12;5.20;99.90
37268;DHT22;23154;52.542;13.362;2022-11-15T07:15:37;5.20;99.90
37268;DHT22;23154;52.542;13.362;2022-11-15T07:18:03;5.30;99.90
37268;DHT22;23154;52.542;13.362;2022-11-15T07:20:29;5.30;99.90
37268;DHT22;23154;52.542;13.362;2022-11-15T07:23:03;5.30;99.90
37268;DHT22;23154;52.542;13.362;2022-11-15T07:25:29;5.50;99.90
37268;DHT22;23154;52.542;13.362;2022-11-15T07:27:55;5.60;99.90
37268;DHT22;23154;52.542;13.362;2022-11-15T07:30:21;5.60;99.90
37268;DHT22;23154;52.542;13.362;2022-11-15T07:32:47;5.60;99.90
37268;DHT22;23154;52.542;13.362;2022-11-15T07:35:12;5.80;99.90
37268;DHT22;23154;52.542;13.362;2022-11-15T07:37:38;5.70;99.90
37268;DHT22;23154;52.542;13.362;2022-11-15T07:40:03;5.90;99.90
37268;DHT22;23154;52.542;13.362;2022-11-15T07:42:31;5.90;99.90
37268;DHT22;23154;52.542;13.362;2022-11-15T07:45:14;6.00;99.90
37268;DHT22;23154;52.542;13.362;2022-11-15T07:47:40;6.00;99.90
37268;DHT22;23154;52.542;13.362;2022-11-15T07:50:06;6.00;99.90
37268;DHT22;23154;52.542;13.362;2022-11-15T07:52:31;6.00;99.90
37268;DHT22;23154;52.542;13.362;2022-11-15T07:54:57;6.10;99.90
37268;DHT22;23154;52.542;13.362;2022-11-15T07:57:22;6.10;99.90
37268;DHT22;23154;52.542;13.362;2022-11-15T07:59:48;6.20;99.90
37268;DHT22;23154;52.542;13.362;2022-11-15T08:02:13;6.20;99.90
37268;DHT22;23154;52.542;13.362;2022-11-15T08:04:41;6.20;99.90
37268;DHT22;23154;52.542;13.362;2022-11-15T08:07:06;6.30;99.90
37268;DHT22;23154;52.542;13.362;2022-11-15T08:09:32;6.40;99.90
37268;DHT22;23154;52.542;13.362;2022-11-15T08:11:57;6.40;99.90
37268;DHT22;23154;52.542;13.362;2022-11-15T08:14:23;6.50;99.90
37268;DHT22;23154;52.542;13.362;2022-11-15T08:16:48;6.50;99.90
37268;DHT22;23154;52.542;13.362;2022-11-15T08:19:14;6.60;99.90
37268;DHT22;23154;52.542;13.362;2022-11-15T08:21:39;6.60;99.90
37268;DHT22;23154;52.542;13.362;2022-11-15T08:24:05;6.60;99.90
37268;DHT22;23154;52.542;13.362;2022-11-15T08:26:31;6.70;99.90
37268;DHT22;23154;52.542;13.362;2022-11-15T08:28:56;6.70;99.90
37268;DHT22;23154;52.542;13.362;2022-11-15T08:31:22;6.80;99.90
37268;DHT22;23154;52.542;13.362;2022-11-15T08:33:47;6.90;99.90
37268;DHT22;23154;52.542;13.362;2022-11-15T08:36:14;6.90;99.90
37268;DHT22;23154;52.542;13.362;2022-11-15T08:38:40;7.00;99.90
37268;DHT22;23154;52.542;13.362;2022-11-15T08:41:05;7.10;99.90
37268;DHT22;23154;52.542;13.362;2022-11-15T08:43:31;7.10;99.90
37268;DHT22;23154;52.542;13.362;2022-11-15T08:45:57;7.20;99.90
37268;DHT22;23154;52.542;13.362;2022-11-15T08:48:22;7.30;99.90
37268;DHT22;23154;52.542;13.362;2022-11-15T08:50:48;7.30;99.90
37268;DHT22;23154;52.542;13.362;2022-11-15T08:53:14;7.40;99.90
37268;DHT22;23154;52.542;13.362;2022-11-15T08:55:39;7.40;99.90
37268;DHT22;23154;52.542;13.362;2022-11-15T08:58:05;7.50;99.90
37268;DHT22;23154;52.542;13.362;2022-11-15T09:00:31;7.50;99.90
37268;DHT22;23154;52.542;13.362;2022-11-15T09:02:56;7.60;99.90
37268;DHT22;23154;52.542;13.362;2022-11-15T09:05:21;7.60;99.90
37268;DHT22;23154;52.542;13.362;2022-11-15T09:07:47;7.70;99.90
37268;DHT22;23154;52.542;13.362;2022-11-15T09:10:12;7.70;99.90
37268;DHT22;23154;52.542;13.362;2022-11-15T09:12:38;7.80;99.90
37268;DHT22;23154;52.542;13.362;2022-11-15T09:15:04;7.90;99.90
37268;DHT22;23154;52.542;13.362;2022-11-15T09:17:30;8.00;99.90
37268;DHT22;23154;52.542;13.362;2022-11-15T09:19:55;8.10;99.90
37268;DHT22;23154;52.542;13.362;2022-11-15T09:22:21;8.10;99.90
37268;DHT22;23154;52.542;13.362;2022-11-15T09:24:46;8.20;99.90
37268;DHT22;23154;52.542;13.362;2022-11-15T09:27:12;8.20;99.90
37268;DHT22;23154;52.542;13.362;2022-11-15T09:29:38;8.30;99.90
37268;DHT22;23154;52.542;13.362;2022-11-15T09:32:04;8.30;99.90
37268;DHT22;23154;52.542;13.362;2022-11-15T09:34:29;8.30;99.90
37268;DHT22;23154;52.542;13.362;2022-11-15T09:36:55;8.40;99.90
37268;DHT22;23154;52.542;13.362;2022-11-15T09:39:20;8.40;99.90
37268;DHT22;23154;52.542;13.362;2022-11-15T09:42:02;8.50;99.90
37268;DHT22;23154;52.542;13.362;2022-11-15T09:44:42;8.60;99.90
37268;DHT22;23154;52.542;13.362;2022-11-15T09:49:34;8.80;99.90
37268;DHT22;23154;52.542;13.362;2022-11-15T09:52:00;8.90;99.90
37268;DHT22;23154;52.542;13.362;2022-11-15T09:54:33;8.90;99.90
37268;DHT22;23154;52.542;13.362;2022-11-15T09:57:11;9.00;99.90
37268;DHT22;23154;52.542;13.362;2022-11-15T10:04:47;9.30;99.90
37268;DHT22;23154;52.542;13.362;2022-11-15T10:09:39;9.40;99.90
37268;DHT22;23154;52.542;13.362;2022-11-15T10:12:09;9.50;99.90
37268;DHT22;23154;52.542;13.362;2022-11-15T10:14:34;9.60;99.90
37268;DHT22;23154;52.542;13.362;2022-11-15T10:17:09;9.70;99.90
37268;DHT22;23154;52.542;13.362;2022-11-15T10:22:16;9.80;99.90
37268;DHT22;23154;52.542;13.362;2022-11-15T10:24:43;9.90;99.90
37268;DHT22;23154;52.542;13.362;2022-11-15T10:27:18;10.00;99.90
37268;DHT22;23154;52.542;13.362;2022-11-15T10:29:45;10.00;99.90
37268;DHT22;23154;52.542;13.362;2022-11-15T10:32:11;10.10;99.90
37268;DHT22;23154;52.542;13.362;2022-11-15T10:34:37;10.10;99.90
37268;DHT22;23154;52.542;13.362;2022-11-15T10:37:03;10.20;99.90
37268;DHT22;23154;52.542;13.362;2022-11-15T10:39:29;10.30;99.90
37268;DHT22;23154;52.542;13.362;2022-11-15T10:41:54;10.40;99.90
37268;DHT22;23154;52.542;13.362;2022-11-15T10:44:21;10.40;99.90
37268;DHT22;23154;52.542;13.362;2022-11-15T10:49:19;10.40;99.90
37268;DHT22;23154;52.542;13.362;2022-11-15T10:51:47;10.50;99.90
37268;DHT22;23154;52.542;13.362;2022-11-15T10:54:13;10.50;99.90
37268;DHT22;23154;52.542;13.362;2022-11-15T10:56:40;10.60;99.90
37268;DHT22;23154;52.542;13.362;2022-11-15T10:59:12;10.60;99.90
37268;DHT22;23154;52.542;13.362;2022-11-15T11:01:45;10.70;99.90
37268;DHT22;23154;52.542;13.362;2022-11-15T11:04:11;10.70;99.90
37268;DHT22;23154;52.542;13.362;2022-11-15T11:06:55;10.80;99.90
37268;DHT22;23154;52.542;13.362;2022-11-15T11:09:30;10.90;99.90
37268;DHT22;23154;52.542;13.362;2022-11-15T11:11:56;10.90;99.90
37268;DHT22;23154;52.542;13.362;2022-11-15T11:14:23;11.00;99.90
37268;DHT22;23154;52.542;13.362;2022-11-15T11:16:54;11.00;99.90
37268;DHT22;23154;52.542;13.362;2022-11-15T11:19:29;11.10;99.90
37268;DHT22;23154;52.542;13.362;2022-11-15T11:24:47;11.20;99.90
37268;DHT22;23154;52.542;13.362;2022-11-15T11:29:51;11.30;99.90
37268;DHT22;23154;52.542;13.362;2022-11-15T11:47:37;11.60;99.90
37268;DHT22;23154;52.542;13.362;2022-11-15T11:50:11;11.60;99.90
37268;DHT22;23154;52.542;13.362;2022-11-15T11:52:39;11.70;99.90
37268;DHT22;23154;52.542;13.362;2022-11-15T12:02:42;11.90;99.90
37268;DHT22;23154;52.542;13.362;2022-11-15T12:05:13;11.90;99.90
37268;DHT22;23154;52.542;13.362;2022-11-15T12:07:41;12.00;99.90
37268;DHT22;23154;52.542;13.362;2022-11-15T12:10:19;12.00;99.90
37268;DHT22;23154;52.542;13.362;2022-11-15T12:12:56;12.00;99.90
37268;DHT22;23154;52.542;13.362;2022-11-15T12:15:25;12.00;99.90
37268;DHT22;23154;52.542;13.362;2022-11-15T12:17:52;12.00;99.90
37268;DHT22;23154;52.542;13.362;2022-11-15T12:20:20;12.00;99.90
37268;DHT22;23154;52.542;13.362;2022-11-15T12:22:53;12.00;99.90
37268;DHT22;23154;52.542;13.362;2022-11-15T12:25:21;12.00;99.90
37268;DHT22;23154;52.542;13.362;2022-11-15T12:27:55;12.10;99.90
37268;DHT22;23154;52.542;13.362;2022-11-15T12:30:22;12.10;99.90
37268;DHT22;23154;52.542;13.362;2022-11-15T12:32:49;12.20;99.90
37268;DHT22;23154;52.542;13.362;2022-11-15T12:35:24;12.20;99.90
37268;DHT22;23154;52.542;13.362;2022-11-15T12:37:51;12.20;99.90
37268;DHT22;23154;52.542;13.362;2022-11-15T12:50:57;12.40;99.90
37268;DHT22;23154;52.542;13.362;2022-11-15T13:06:34;12.50;99.90
37268;DHT22;23154;52.542;13.362;2022-11-15T13:09:02;12.50;99.90
37268;DHT22;23154;52.542;13.362;2022-11-15T13:11:47;12.50;99.90
37268;DHT22;23154;52.542;13.362;2022-11-15T13:17:00;12.50;99.90
37268;DHT22;23154;52.542;13.362;2022-11-15T13:19:26;12.60;99.90
37268;DHT22;23154;52.542;13.362;2022-11-15T13:21:52;12.60;99.90
37268;DHT22;23154;52.542;13.362;2022-11-15T13:24:37;12.60;99.90
37268;DHT22;23154;52.542;13.362;2022-11-15T13:27:10;12.60;99.90
37268;DHT22;23154;52.542;13.362;2022-11-15T13:29:36;12.60;99.90
37268;DHT22;23154;52.542;13.362;2022-11-15T13:32:01;12.60;99.90
37268;DHT22;23154;52.542;13.362;2022-11-15T13:34:28;12.60;99.90
37268;DHT22;23154;52.542;13.362;2022-11-15T13:36:54;12.60;99.90
37268;DHT22;23154;52.542;13.362;2022-11-15T13:39:31;12.50;99.90
37268;DHT22;23154;52.542;13.362;2022-11-15T13:41:57;12.50;99.90
37268;DHT22;23154;52.542;13.362;2022-11-15T13:44:24;12.60;99.90
37268;DHT22;23154;52.542;13.362;2022-11-15T13:47:00;12.60;99.90
37268;DHT22;23154;52.542;13.362;2022-11-15T13:49:30;12.50;99.90
37268;DHT22;23154;52.542;13.362;2022-11-15T13:51:56;12.50;99.90
37268;DHT22;23154;52.542;13.362;2022-11-15T13:54:29;12.50;99.90
37268;DHT22;23154;52.542;13.362;2022-11-15T13:57:03;12.50;99.90
37268;DHT22;23154;52.542;13.362;2022-11-15T13:59:35;12.50;99.90
37268;DHT22;23154;52.542;13.362;2022-11-15T14:02:12;12.50;99.90
37268;DHT22;23154;52.542;13.362;2022-11-15T14:04:39;12.50;99.90
37268;DHT22;23154;52.542;13.362;2022-11-15T14:07:14;12.40;99.90
37268;DHT22;23154;52.542;13.362;2022-11-15T14:09:40;12.30;99.90
37268;DHT22;23154;52.542;13.362;2022-11-15T14:14:50;12.20;99.90
37268;DHT22;23154;52.542;13.362;2022-11-15T14:17:20;12.20;99.90
37268;DHT22;23154;52.542;13.362;2022-11-15T14:19:46;12.20;99.90
37268;DHT22;23154;52.542;13.362;2022-11-15T14:24:39;12.20;99.90
37268;DHT22;23154;52.542;13.362;2022-11-15T14:27:23;12.20;99.90
37268;DHT22;23154;52.542;13.362;2022-11-15T14:29:50;12.10;99.90
37268;DHT22;23154;52.542;13.362;2022-11-15T14:35:20;12.10;99.90
37268;DHT22;23154;52.542;13.362;2022-11-15T14:37:47;12.10;99.90
37268;DHT22;23154;52.542;13.362;2022-11-15T14:40:17;12.00;99.90
37268;DHT22;23154;52.542;13.362;2022-11-15T14:42:46;12.00;99.90
37268;DHT22;23154;52.542;13.362;2022-11-15T14:45:13;12.00;99.90
37268;DHT22;23154;52.542;13.362;2022-11-15T14:47:40;11.90;99.90
37268;DHT22;23154;52.542;13.362;2022-11-15T14:50:10;11.80;99.90
37268;DHT22;23154;52.542;13.362;2022-11-15T14:52:36;11.70;99.90
37268;DHT22;23154;52.542;13.362;2022-11-15T14:55:04;11.70;99.90
37268;DHT22;23154;52.542;13.362;2022-11-15T14:57:35;11.60;99.90
37268;DHT22;23154;52.542;13.362;2022-11-15T15:00:00;11.40;99.90
37268;DHT22;23154;52.542;13.362;2022-11-15T15:02:26;11.40;99.90
37268;DHT22;23154;52.542;13.362;2022-11-15T15:04:52;11.30;99.90
37268;DHT22;23154;52.542;13.362;2022-11-15T15:07:23;11.20;99.90
37268;DHT22;23154;52.542;13.362;2022-11-15T15:09:48;11.10;99.90
37268;DHT22;23154;52.542;13.362;2022-11-15T15:12:15;11.00;99.90
37268;DHT22;23154;52.542;13.362;2022-11-15T15:14:42;11.00;99.90
37268;DHT22;23154;52.542;13.362;2022-11-15T15:17:13;10.90;99.90
37268;DHT22;23154;52.542;13.362;2022-11-15T15:19:39;10.80;99.90
37268;DHT22;23154;52.542;13.362;2022-11-15T15:22:05;10.80;99.90
37268;DHT22;23154;52.542;13.362;2022-11-15T15:24:31;10.70;99.90
37268;DHT22;23154;52.542;13.362;2022-11-15T15:26:56;10.70;99.90
37268;DHT22;23154;52.542;13.362;2022-11-15T15:29:22;10.60;99.90
37268;DHT22;23154;52.542;13.362;2022-11-15T15:31:48;10.50;99.90
37268;DHT22;23154;52.542;13.362;2022-11-15T15:34:14;10.30;99.90
37268;DHT22;23154;52.542;13.362;2022-11-15T15:36:39;10.30;99.90
37268;DHT22;23154;52.542;13.362;2022-11-15T15:39:07;10.30;99.90
37268;DHT22;23154;52.542;13.362;2022-11-15T15:41:33;10.30;99.90
37268;DHT22;23154;52.542;13.362;2022-11-15T15:43:59;10.20;99.90
37268;DHT22;23154;52.542;13.362;2022-11-15T15:46:24;10.20;99.90
37268;DHT22;23154;52.542;13.362;2022-11-15T15:48:50;10.20;99.90
37268;DHT22;23154;52.542;13.362;2022-11-15T15:51:16;10.10;99.90
37268;DHT22;23154;52.542;13.362;2022-11-15T15:53:41;10.10;99.90
37268;DHT22;23154;52.542;13.362;2022-11-15T15:56:07;10.20;99.90
37268;DHT22;23154;52.542;13.362;2022-11-15T15:58:33;10.20;99.90
37268;DHT22;23154;52.542;13.362;2022-11-15T16:00:59;10.10;99.90
37268;DHT22;23154;52.542;13.362;2022-11-15T16:03:24;10.10;99.90
37268;DHT22;23154;52.542;13.362;2022-11-15T16:05:50;10.00;99.90
37268;DHT22;23154;52.542;13.362;2022-11-15T16:08:20;9.90;99.90
37268;DHT22;23154;52.542;13.362;2022-11-15T16:10:45;9.80;99.90
37268;DHT22;23154;52.542;13.362;2022-11-15T16:13:11;9.80;99.90
37268;DHT22;23154;52.542;13.362;2022-11-15T16:15:37;9.90;99.90
37268;DHT22;23154;52.542;13.362;2022-11-15T16:18:03;9.80;99.90
37268;DHT22;23154;52.542;13.362;2022-11-15T16:20:33;9.90;99.90
37268;DHT22;23154;52.542;13.362;2022-11-15T16:22:59;9.90;99.90
37268;DHT22;23154;52.542;13.362;2022-11-15T16:25:25;9.70;99.90
37268;DHT22;23154;52.542;13.362;2022-11-15T16:27:51;9.70;99.90
37268;DHT22;23154;52.542;13.362;2022-11-15T16:30:18;9.80;99.90
37268;DHT22;23154;52.542;13.362;2022-11-15T16:32:44;9.70;99.90
37268;DHT22;23154;52.542;13.362;2022-11-15T16:35:13;9.70;99.90
37268;DHT22;23154;52.542;13.362;2022-11-15T16:37:38;9.60;99.90
37268;DHT22;23154;52.542;13.362;2022-11-15T16:40:28;9.50;99.90
37268;DHT22;23154;52.542;13.362;2022-11-15T16:42:55;9.50;99.90
37268;DHT22;23154;52.542;13.362;2022-11-15T16:45:21;9.50;99.90
37268;DHT22;23154;52.542;13.362;2022-11-15T16:47:47;9.50;99.90
37268;DHT22;23154;52.542;13.362;2022-11-15T16:50:17;9.40;99.90
37268;DHT22;23154;52.542;13.362;2022-11-15T16:52:44;9.40;99.90
37268;DHT22;23154;52.542;13.362;2022-11-15T16:55:09;9.50;99.90
37268;DHT22;23154;52.542;13.362;2022-11-15T16:57:35;9.40;99.90
37268;DHT22;23154;52.542;13.362;2022-11-15T17:00:02;9.30;99.90
37268;DHT22;23154;52.542;13.362;2022-11-15T17:02:27;9.30;99.90
37268;DHT22;23154;52.542;13.362;2022-11-15T17:04:53;9.30;99.90
37268;DHT22;23154;52.542;13.362;2022-11-15T17:07:18;9.20;99.90
37268;DHT22;23154;52.542;13.362;2022-11-15T17:09:44;9.10;99.90
37268;DHT22;23154;52.542;13.362;2022-11-15T17:12:10;9.00;99.90
37268;DHT22;23154;52.542;13.362;2022-11-15T17:14:36;9.00;99.90
37268;DHT22;23154;52.542;13.362;2022-11-15T17:17:03;9.00;99.90